Weather at Chicago Midway International Airport

Public forecast

Using degrees Fahrenheit for public forecast. Weather courtesy of forecast.io.

Current aviation weather report (METAR) for Chicago Midway International Airport

2024/02/23 07:53 (retrieved 34 minutes ago)

KMDW 230753Z 32009KT 10SM CLR 08/M01 A2964 RMK AO2 SLP040 T00781006

Aviation forecast (TAF) for Chicago Midway International Airport

2024/02/23 06:33 (retrieved 2 hours ago)

TAF KMDW 230529Z 2306/2412 31011KT P6SM FEW070 SCT150 FM232000 01012G20KT 6SM -SHRASN SCT015 OVC035 FM232200 02012G20KT 5SM -SN BKN015 OVC025 PROB30 2322/2402 2SM -SHSN OVC015 FM240200 01014G22KT P6SM -SN SCT020 BKN035 PROB30 2404/2407 2SM -SN BKN020 FM240700 36011G17KT P6SM BKN035